Time;durP1;ratioP1;P1;durP2;ratioP2;P2;SDS_P1;SDS_P2;PMS_P1;PMS_P2;Temp;Humidity;BMP_temperature;BMP_pressure;BME280_temperature;BME280_humidity;BME280_pressure;Samples;Min_cycle;Max_cycle;Signal;HPM_P1;HPM_P2
2021/06/30 00:00:14;;;;;;;;;14.25;11.75;;;;;17.64;69.30;100974.59;5055772;28;45427;-70
2021/06/30 00:02:40;;;;;;;;;10.75;10.00;;;;;17.63;69.26;100971.06;5054610;28;45562;-70
2021/06/30 00:05:07;;;;;;;;;11.75;9.75;;;;;17.60;70.05;100965.91;5054235;28;45670;-70
2021/06/30 00:07:33;;;;;;;;;11.50;9.50;;;;;17.61;69.62;100970.31;5055208;28;45556;-70
2021/06/30 00:09:59;;;;;;;;;12.75;10.50;;;;;17.61;69.48;100969.41;5055386;28;45289;-70
2021/06/30 00:12:24;;;;;;;;;7.00;7.00;;;;;17.59;69.54;100969.50;5055277;28;47307;-70
2021/06/30 00:14:51;;;;;;;;;7.50;7.00;;;;;17.60;69.74;100967.72;5053498;28;45465;-70
2021/06/30 00:17:18;;;;;;;;;12.00;12.00;;;;;17.61;69.99;100959.72;5054764;28;45513;-70
2021/06/30 00:19:44;;;;;;;;;12.00;10.00;;;;;17.61;69.27;100962.34;5054146;28;45533;-70
2021/06/30 00:22:09;;;;;;;;;8.50;7.50;;;;;17.62;69.70;100958.78;5054738;28;46045;-70
2021/06/30 00:24:34;;;;;;;;;10.75;9.00;;;;;17.65;69.50;100960.41;5055619;28;45430;-70
2021/06/30 00:27:00;;;;;;;;;10.00;9.25;;;;;17.66;69.58;100959.47;5053786;28;45532;-70
2021/06/30 00:29:25;;;;;;;;;9.50;9.50;;;;;17.67;69.69;100955.06;5054762;28;45411;-70
2021/06/30 00:31:50;;;;;;;;;13.00;11.50;;;;;17.68;69.90;100962.91;5054802;28;46280;-70
2021/06/30 00:34:16;;;;;;;;;7.75;7.75;;;;;17.69;69.24;100956.69;5054432;28;45497;-70
2021/06/30 00:36:46;;;;;;;;;9.25;9.25;;;;;17.69;69.49;100964.66;5055184;28;45390;-70
2021/06/30 00:39:12;;;;;;;;;8.50;7.50;;;;;17.69;69.66;100958.50;5054875;28;45422;-71
2021/06/30 00:41:38;;;;;;;;;7.00;7.00;;;;;17.70;69.46;100963.69;5053012;28;47113;-70
2021/06/30 00:44:04;;;;;;;;;8.25;6.75;;;;;17.70;69.49;100963.69;5055081;28;45569;-71
2021/06/30 00:46:32;;;;;;;;;8.00;8.00;;;;;17.69;69.45;100964.66;5054799;28;45334;-70
2021/06/30 00:48:58;;;;;;;;;6.00;4.50;;;;;17.69;69.42;100954.06;5054607;28;45250;-70
2021/06/30 00:51:25;;;;;;;;;6.50;5.00;;;;;17.69;69.64;100962.00;5054932;28;45581;-70
2021/06/30 00:53:51;;;;;;;;;5.00;5.00;;;;;17.63;69.95;100954.31;5054103;28;45382;-70
2021/06/30 00:56:22;;;;;;;;;6.75;4.75;;;;;17.58;69.82;100957.19;5054540;28;47730;-70
2021/06/30 00:58:50;;;;;;;;;8.50;8.25;;;;;17.58;69.70;100958.97;5054547;28;45514;-70
2021/06/30 01:01:15;;;;;;;;;6.75;5.00;;;;;17.60;70.01;100962.41;5054435;28;46164;-70
2021/06/30 01:03:40;;;;;;;;;7.00;5.75;;;;;17.65;69.68;100962.22;5054299;28;45502;-70
2021/06/30 01:06:06;;;;;;;;;5.50;5.50;;;;;17.64;69.88;100961.34;5054961;28;45811;-70
2021/06/30 01:08:31;;;;;;;;;8.75;6.75;;;;;17.63;70.02;100959.63;5054317;28;45495;-70
2021/06/30 01:10:56;;;;;;;;;6.75;6.75;;;;;17.62;69.99;100969.34;5052739;28;46284;-70
2021/06/30 01:13:22;;;;;;;;;5.75;5.75;;;;;17.60;70.31;100963.28;5054040;28;45588;-70
2021/06/30 01:15:55;;;;;;;;;8.00;6.50;;;;;17.54;70.13;100955.63;5054270;28;45342;-71
2021/06/30 01:18:25;;;;;;;;;10.75;8.00;;;;;17.55;70.17;100959.97;5052871;28;45480;-70
2021/06/30 01:20:52;;;;;;;;;8.25;5.75;;;;;17.51;70.04;100953.09;5053647;28;45604;-70
2021/06/30 01:23:18;;;;;;;;;3.00;2.50;;;;;17.53;70.47;100953.91;5054220;28;45479;-70
2021/06/30 01:25:44;;;;;;;;;8.50;6.00;;;;;17.55;70.46;100959.13;5056122;28;45754;-70
2021/06/30 01:28:10;;;;;;;;;6.00;4.00;;;;;17.55;71.06;100954.69;5057519;28;45309;-70
2021/06/30 01:30:35;;;;;;;;;8.25;8.25;;;;;17.53;70.75;100959.19;5057795;28;45318;-70
2021/06/30 01:33:01;;;;;;;;;5.00;5.00;;;;;17.55;71.28;100959.97;5057005;28;45216;-70
2021/06/30 01:35:30;;;;;;;;;8.00;5.25;;;;;17.59;70.75;100947.44;5057475;28;45481;-70
2021/06/30 01:37:55;;;;;;;;;6.50;5.00;;;;;17.61;71.49;100950.88;5057627;28;45505;-71
2021/06/30 01:40:22;;;;;;;;;5.50;4.50;;;;;17.60;71.08;100949.19;5057474;28;46453;-70
2021/06/30 01:42:51;;;;;;;;;7.25;6.00;;;;;17.53;71.33;100948.59;5057938;28;45367;-70
2021/06/30 01:45:17;;;;;;;;;6.75;5.75;;;;;17.49;70.86;100946.16;5057976;28;45550;-70
2021/06/30 01:47:42;;;;;;;;;5.75;5.75;;;;;17.47;71.00;100946.25;5056692;28;45432;-71
2021/06/30 01:50:09;;;;;;;;;8.00;4.25;;;;;17.47;70.99;100953.31;5057149;28;46155;-70
2021/06/30 01:52:35;;;;;;;;;10.25;9.50;;;;;17.48;70.61;100949.75;5057210;28;45365;-71
2021/06/30 01:55:01;;;;;;;;;6.00;6.00;;;;;17.52;70.51;100954.84;5057272;28;45525;-71
2021/06/30 01:57:26;;;;;;;;;6.75;6.75;;;;;17.55;70.78;100953.84;5057837;28;45438;-71
2021/06/30 01:59:53;;;;;;;;;7.75;5.00;;;;;17.55;70.44;100957.34;5057003;28;46019;-70
2021/06/30 02:02:18;;;;;;;;;7.25;4.25;;;;;17.54;70.28;100963.56;5056434;28;45332;-71
2021/06/30 02:04:53;;;;;;;;;6.00;6.00;;;;;17.57;70.45;100966.06;5057030;28;45465;-71
2021/06/30 02:07:18;;;;;;;;;7.50;6.00;;;;;17.58;70.08;100957.19;5057263;28;45226;-71
2021/06/30 02:09:43;;;;;;;;;8.00;8.00;;;;;17.62;69.97;100965.84;5057049;28;46438;-71
2021/06/30 02:12:09;;;;;;;;;8.50;6.25;;;;;17.65;70.05;100959.56;5056864;28;45402;-70
2021/06/30 02:14:34;;;;;;;;;5.25;5.25;;;;;17.63;69.73;100968.41;5056864;28;45765;-72
2021/06/30 02:17:00;;;;;;;;;4.75;4.75;;;;;17.62;69.66;100963.22;5056435;28;45441;-72
2021/06/30 02:19:25;;;;;;;;;8.25;6.25;;;;;17.63;69.60;100971.06;5056626;28;46035;-73
2021/06/30 02:21:50;;;;;;;;;8.25;6.00;;;;;17.66;69.96;100970.06;5056454;28;45256;-73
2021/06/30 02:24:16;;;;;;;;;5.75;5.00;;;;;17.68;69.55;100973.50;5057298;28;45396;-73
2021/06/30 02:26:41;;;;;;;;;5.50;3.25;;;;;17.71;69.78;100977.78;5056702;28;45446;-73
2021/06/30 02:29:06;;;;;;;;;8.50;7.00;;;;;17.73;69.41;100974.19;5056530;28;45973;-73
2021/06/30 02:31:32;;;;;;;;;9.50;9.00;;;;;17.75;69.28;100979.38;5056193;28;45601;-73
2021/06/30 02:33:57;;;;;;;;;5.75;5.50;;;;;17.77;69.51;100977.53;5056562;28;45467;-73
2021/06/30 02:36:22;;;;;;;;;10.25;8.25;;;;;17.78;69.28;100969.53;5055776;28;45462;-73
2021/06/30 02:38:48;;;;;;;;;9.00;7.75;;;;;17.80;69.26;100978.28;5056609;28;46687;-73
2021/06/30 02:41:13;;;;;;;;;8.25;8.25;;;;;17.79;68.97;100981.81;5056282;28;45493;-72
2021/06/30 02:43:41;;;;;;;;;7.50;7.00;;;;;17.80;68.68;100980.03;5056270;28;45520;-72
2021/06/30 02:46:06;;;;;;;;;7.00;6.00;;;;;17.81;68.88;100976.50;5056489;28;45538;-72
2021/06/30 02:48:32;;;;;;;;;11.00;6.50;;;;;17.82;68.62;100976.41;5056947;28;45441;-72
2021/06/30 02:50:59;;;;;;;;;6.75;6.25;;;;;17.82;68.39;100987.00;5056213;28;45363;-72
2021/06/30 02:53:24;;;;;;;;;9.25;8.50;;;;;17.82;67.78;100988.78;5056007;28;45427;-72
2021/06/30 02:55:49;;;;;;;;;10.75;7.00;;;;;17.81;68.03;100987.94;5056380;28;45462;-72
2021/06/30 02:58:15;;;;;;;;;9.00;8.00;;;;;17.81;67.83;100987.94;5056398;28;45481;-72
2021/06/30 03:00:40;;;;;;;;;10.50;9.00;;;;;17.80;67.80;100987.97;5056067;28;45305;-72
2021/06/30 03:03:05;;;;;;;;;8.25;7.75;;;;;17.78;67.53;100988.06;5056244;28;45481;-72
2021/06/30 03:05:31;;;;;;;;;14.00;9.00;;;;;17.76;67.52;100992.56;5056103;28;45498;-72
2021/06/30 03:07:56;;;;;;;;;11.00;10.00;;;;;17.76;67.93;100992.56;5055622;28;46502;-72
2021/06/30 03:10:21;;;;;;;;;13.50;11.75;;;;;17.75;68.03;100993.47;5055741;28;45311;-72
2021/06/30 03:12:48;;;;;;;;;12.00;10.25;;;;;17.75;67.93;100990.81;5055810;28;45336;-72
2021/06/30 03:15:14;;;;;;;;;14.75;11.00;;;;;17.76;67.57;100992.56;5055895;28;45371;-72
2021/06/30 03:17:40;;;;;;;;;8.75;7.75;;;;;17.76;67.66;100997.84;5055544;28;47390;-72
2021/06/30 03:20:09;;;;;;;;;12.75;11.50;;;;;17.72;67.61;100998.91;5055091;28;45500;-72
2021/06/30 03:22:35;;;;;;;;;10.25;9.75;;;;;17.70;67.71;100994.63;5055646;28;45266;-71
2021/06/30 03:25:00;;;;;;;;;14.75;12.00;;;;;17.66;67.88;100999.19;5055436;28;45375;-72
2021/06/30 03:27:26;;;;;;;;;10.25;10.25;;;;;17.66;67.64;100995.69;5055250;28;45314;-72
2021/06/30 03:29:51;;;;;;;;;12.75;11.00;;;;;17.67;67.93;101000.91;5055363;28;45499;-73
2021/06/30 03:32:17;;;;;;;;;14.00;10.75;;;;;17.66;67.66;100999.19;5055302;28;45504;-72
2021/06/30 03:34:42;;;;;;;;;13.75;11.00;;;;;17.63;67.59;100996.69;5055066;28;45621;-72
2021/06/30 03:37:08;;;;;;;;;11.25;9.50;;;;;17.61;67.49;100996.78;5055483;28;46066;-72
2021/06/30 03:39:33;;;;;;;;;11.25;10.00;;;;;17.62;67.31;100995.81;5055849;28;45505;-73
2021/06/30 03:41:58;;;;;;;;;14.50;11.50;;;;;17.64;67.24;100998.41;5054865;28;45390;-72
2021/06/30 03:44:24;;;;;;;;;14.00;12.50;;;;;17.67;67.43;101002.72;5055171;28;45468;-73
2021/06/30 03:46:50;;;;;;;;;14.50;14.00;;;;;17.69;67.24;101007.00;5054515;28;46323;-72
2021/06/30 03:49:16;;;;;;;;;14.00;11.25;;;;;17.68;67.16;101010.56;5055354;28;45423;-72
2021/06/30 03:51:42;;;;;;;;;18.00;15.25;;;;;17.67;67.38;101002.72;5055281;28;45433;-72
2021/06/30 03:54:09;;;;;;;;;12.75;10.50;;;;;17.66;67.49;101007.13;5055245;28;45591;-72
2021/06/30 03:56:34;;;;;;;;;9.50;8.50;;;;;17.67;67.60;101008.00;5054692;28;45462;-72
2021/06/30 03:59:00;;;;;;;;;15.75;13.25;;;;;17.66;67.20;101016.88;5054592;28;45452;-72
2021/06/30 04:01:25;;;;;;;;;14.25;9.50;;;;;17.62;67.33;101011.72;5054858;28;45335;-72
2021/06/30 04:03:55;;;;;;;;;10.50;10.00;;;;;17.66;67.12;101008.91;5055100;28;45320;-72
2021/06/30 04:06:21;;;;;;;;;11.00;9.75;;;;;17.67;67.17;101008.00;5055327;28;47127;-72
2021/06/30 04:08:48;;;;;;;;;37.50;33.75;;;;;17.67;67.02;101008.84;5054040;28;45439;-72
2021/06/30 04:11:13;;;;;;;;;19.50;18.00;;;;;17.68;67.30;101009.72;5053454;28;45539;-72
2021/06/30 04:13:38;;;;;;;;;11.50;10.50;;;;;17.66;67.03;101003.63;5054509;28;47213;-72
2021/06/30 04:16:04;;;;;;;;;10.50;10.50;;;;;17.65;66.98;101000.13;5038116;28;46290;-72
2021/06/30 04:18:29;;;;;;;;;11.00;10.00;;;;;17.67;66.97;101008.84;5054821;28;45344;-72
2021/06/30 04:20:55;;;;;;;;;9.50;9.00;;;;;17.65;67.22;101008.06;5053842;28;45398;-71
2021/06/30 04:23:20;;;;;;;;;9.75;9.75;;;;;17.61;67.01;101015.31;5053725;28;45448;-73
2021/06/30 04:25:48;;;;;;;;;13.25;11.00;;;;;17.57;66.97;101008.41;5053775;28;46346;-72
2021/06/30 04:28:14;;;;;;;;;11.00;9.50;;;;;17.58;67.10;101009.28;5054506;28;45956;-72
2021/06/30 04:30:43;;;;;;;;;10.25;7.00;;;;;17.58;67.18;101015.41;5054211;28;45340;-72
2021/06/30 04:33:09;;;;;;;;;9.75;9.75;;;;;17.58;67.18;101019.88;5053481;28;45456;-72
2021/06/30 04:35:34;;;;;;;;;13.75;10.25;;;;;17.60;67.37;101018.88;5053747;28;45518;-72
2021/06/30 04:38:01;;;;;;;;;13.00;12.00;;;;;17.60;67.25;101023.31;5053505;28;45418;-72
2021/06/30 04:40:26;;;;;;;;;7.50;7.50;;;;;17.58;67.20;101017.22;5053662;28;45275;-72
2021/06/30 04:42:51;;;;;;;;;10.25;10.25;;;;;17.58;67.47;101019.88;5054168;28;45752;-74
2021/06/30 04:45:17;;;;;;;;;9.75;8.50;;;;;17.57;67.21;101021.66;5053926;28;45424;-74
2021/06/30 04:47:42;;;;;;;;;7.50;7.50;;;;;17.57;67.29;101021.66;5053240;28;45256;-72
2021/06/30 04:50:09;;;;;;;;;8.00;7.75;;;;;17.59;67.60;101022.44;5053239;28;45287;-72
2021/06/30 04:52:34;;;;;;;;;12.50;7.75;;;;;17.60;67.20;101023.31;5053360;28;45530;-71
2021/06/30 04:54:59;;;;;;;;;11.00;8.00;;;;;17.59;67.53;101022.44;5052062;28;46015;-70
2021/06/30 04:57:25;;;;;;;;;10.75;9.00;;;;;17.59;67.14;101026.84;5046823;28;45388;-69
2021/06/30 04:59:50;;;;;;;;;5.00;5.00;;;;;17.59;67.29;101029.50;5055920;28;45474;-69
2021/06/30 05:02:15;;;;;;;;;7.50;7.00;;;;;17.59;67.34;101018.91;5055523;28;45415;-70
2021/06/30 05:04:41;;;;;;;;;11.00;10.00;;;;;17.59;67.58;101025.09;5056121;28;46098;-70
2021/06/30 05:07:06;;;;;;;;;9.50;8.50;;;;;17.58;67.71;101025.16;5056436;28;45258;-71
2021/06/30 05:09:32;;;;;;;;;6.75;6.75;;;;;17.59;67.60;101025.09;5056431;28;45338;-71
2021/06/30 05:11:57;;;;;;;;;8.00;6.25;;;;;17.61;67.22;101032.94;5056209;28;45569;-72
2021/06/30 05:14:22;;;;;;;;;12.25;10.75;;;;;17.61;67.69;101033.84;5055798;28;46415;-72
2021/06/30 05:16:48;;;;;;;;;6.50;6.50;;;;;17.60;67.54;101029.44;5056113;28;45290;-72
2021/06/30 05:19:13;;;;;;;;;7.00;5.25;;;;;17.57;67.57;101028.75;5056513;28;45268;-71
2021/06/30 05:21:38;;;;;;;;;9.50;9.25;;;;;17.57;68.07;101034.03;5056234;28;45628;-69
2021/06/30 05:24:04;;;;;;;;;9.75;9.00;;;;;17.57;67.90;101032.25;5055133;28;46226;-69
2021/06/30 05:26:29;;;;;;;;;11.75;10.75;;;;;17.57;67.44;101031.38;5055868;28;45504;-69
2021/06/30 05:28:55;;;;;;;;;10.00;9.75;;;;;17.58;67.81;101039.25;5055875;28;45538;-69
2021/06/30 05:31:20;;;;;;;;;10.00;8.00;;;;;17.57;67.51;101045.47;5055729;28;45482;-69
2021/06/30 05:33:45;;;;;;;;;10.50;9.50;;;;;17.59;67.77;101045.38;5056403;28;45560;-69
2021/06/30 05:36:11;;;;;;;;;9.75;9.75;;;;;17.60;67.84;101044.47;5056170;28;45562;-70
2021/06/30 05:38:36;;;;;;;;;12.25;10.00;;;;;17.58;67.78;101047.19;5055676;28;45352;-70
2021/06/30 05:41:02;;;;;;;;;11.75;9.25;;;;;17.59;67.97;101048.03;5055662;28;45294;-70
2021/06/30 05:43:28;;;;;;;;;10.75;8.25;;;;;17.59;68.01;101050.69;5055185;28;47052;-70
2021/06/30 05:45:54;;;;;;;;;9.00;9.00;;;;;17.56;68.03;101046.38;5055909;28;45464;-70
2021/06/30 05:48:19;;;;;;;;;13.50;11.75;;;;;17.55;68.21;101049.97;5054578;28;46003;-71
2021/06/30 05:50:45;;;;;;;;;10.75;9.75;;;;;17.55;67.87;101057.06;5056557;28;45463;-70
2021/06/30 05:53:10;;;;;;;;;8.75;8.00;;;;;17.56;67.76;101050.84;5055511;28;45442;-70
2021/06/30 05:55:35;;;;;;;;;9.00;7.75;;;;;17.58;67.73;101054.28;5055530;28;45324;-70
2021/06/30 05:58:01;;;;;;;;;8.50;6.75;;;;;17.59;67.73;101058.63;5055833;28;45548;-70
2021/06/30 06:00:26;;;;;;;;;10.50;8.50;;;;;17.59;67.60;101053.34;5056206;28;45523;-69
2021/06/30 06:02:51;;;;;;;;;12.00;9.75;;;;;17.58;67.66;101055.13;5055474;28;47043;-69
2021/06/30 06:05:17;;;;;;;;;14.25;12.00;;;;;17.60;67.80;101057.72;5055216;28;45387;-70
2021/06/30 06:07:43;;;;;;;;;6.25;5.25;;;;;17.61;67.96;101054.13;5054226;28;45410;-69
2021/06/30 06:10:10;;;;;;;;;8.25;7.25;;;;;17.66;68.25;101069.81;5054904;28;45478;-70
2021/06/30 06:12:36;;;;;;;;;9.00;9.00;;;;;17.68;68.15;101066.16;5055726;28;46356;-70
2021/06/30 06:15:07;;;;;;;;;10.50;8.00;;;;;17.72;68.10;101074.84;5055515;28;45446;-70
2021/06/30 06:17:32;;;;;;;;;9.50;7.50;;;;;17.73;67.93;101072.13;5054756;28;45365;-70
2021/06/30 06:19:57;;;;;;;;;10.75;8.00;;;;;17.73;68.02;101072.13;5054733;28;45357;-70
2021/06/30 06:22:23;;;;;;;;;5.25;5.25;;;;;17.71;67.83;101073.09;5054207;28;46062;-70
2021/06/30 06:24:48;;;;;;;;;8.00;7.00;;;;;17.69;67.92;101064.41;5054632;28;45309;-70
2021/06/30 06:27:14;;;;;;;;;8.00;5.50;;;;;17.68;67.88;101071.47;5055274;28;45281;-69
2021/06/30 06:29:39;;;;;;;;;9.75;6.75;;;;;17.70;67.83;101080.19;5054994;28;45474;-69
2021/06/30 06:32:05;;;;;;;;;13.00;12.00;;;;;17.73;67.67;101074.78;5053819;28;46433;-69
2021/06/30 06:34:30;;;;;;;;;12.50;11.00;;;;;17.77;67.48;101080.78;5054212;28;45308;-69
2021/06/30 06:36:59;;;;;;;;;8.50;7.75;;;;;17.75;67.41;101080.84;5053466;28;45275;-69
2021/06/30 06:39:27;;;;;;;;;11.25;9.50;;;;;17.78;67.64;101079.84;5054741;28;45386;-70
2021/06/30 06:41:53;;;;;;;;;13.75;11.50;;;;;17.77;67.68;101079.00;5054228;28;46215;-69
2021/06/30 06:44:18;;;;;;;;;23.25;22.25;;;;;17.78;67.29;101088.69;5054185;28;45414;-69
2021/06/30 06:46:44;;;;;;;;;22.75;17.00;;;;;17.81;67.44;101090.34;5054075;28;45826;-70
2021/06/30 06:49:09;;;;;;;;;23.50;19.75;;;;;17.82;67.37;101095.56;5053386;28;45336;-71
2021/06/30 06:51:36;;;;;;;;;20.50;15.75;;;;;17.81;67.56;101090.34;5053985;28;45989;-70
2021/06/30 06:54:03;;;;;;;;;12.75;12.50;;;;;17.78;67.35;101095.75;5053204;28;45533;-70
2021/06/30 06:56:29;;;;;;;;;12.50;11.00;;;;;17.76;67.17;101090.53;5053425;28;45411;-72
2021/06/30 06:58:55;;;;;;;;;15.75;13.50;;;;;17.76;67.30;101087.88;5053638;28;45492;-71
2021/06/30 07:01:22;;;;;;;;;11.00;11.00;;;;;17.79;67.19;101087.72;5053758;28;46334;-72
2021/06/30 07:03:47;;;;;;;;;11.25;10.00;;;;;17.79;67.24;101090.38;5054651;28;45570;-72
2021/06/30 07:06:12;;;;;;;;;17.75;14.75;;;;;17.82;67.09;101098.22;5053819;28;45351;-72
2021/06/30 07:08:38;;;;;;;;;14.00;11.00;;;;;17.88;67.09;101091.81;5053260;28;45641;-70
2021/06/30 07:11:03;;;;;;;;;9.75;9.75;;;;;17.94;66.80;101094.16;5053485;28;45674;-71
2021/06/30 07:13:29;;;;;;;;;6.25;6.25;;;;;17.97;66.56;101091.41;5054001;28;45529;-71
2021/06/30 07:15:54;;;;;;;;;14.00;12.50;;;;;18.01;66.49;101092.09;5053685;28;45573;-70
2021/06/30 07:18:19;;;;;;;;;12.50;10.50;;;;;18.10;66.71;101090.81;5053921;28;45477;-71
2021/06/30 07:20:45;;;;;;;;;12.50;12.25;;;;;18.16;66.34;101091.41;5051466;28;45528;-70
2021/06/30 07:23:11;;;;;;;;;6.50;6.50;;;;;18.17;65.74;101093.13;5052960;28;45493;-71
2021/06/30 07:25:38;;;;;;;;;11.75;10.25;;;;;18.17;65.50;101093.13;5053698;28;45500;-71
2021/06/30 07:28:04;;;;;;;;;13.00;8.25;;;;;18.19;66.02;101101.84;5053592;28;45363;-69
2021/06/30 07:30:30;;;;;;;;;15.25;11.50;;;;;18.24;65.45;101097.19;5053986;28;46563;-70
2021/06/30 07:32:55;;;;;;;;;7.50;7.50;;;;;18.28;65.63;101103.19;5053450;28;45516;-70
2021/06/30 07:35:21;;;;;;;;;11.00;9.75;;;;;18.35;65.14;101109.09;5052656;28;45410;-70
2021/06/30 07:37:46;;;;;;;;;14.25;11.50;;;;;18.41;65.04;101103.50;5053504;28;45578;-71
2021/06/30 07:40:12;;;;;;;;;12.75;9.50;;;;;18.48;64.94;101112.03;5052718;28;45996;-71
2021/06/30 07:42:37;;;;;;;;;13.25;9.00;;;;;18.55;64.55;101109.00;5052760;28;45344;-70
2021/06/30 07:45:04;;;;;;;;;12.00;9.25;;;;;18.63;64.19;101108.63;5053875;28;45524;-71
2021/06/30 07:47:30;;;;;;;;;11.00;10.00;;;;;18.70;63.98;101115.38;5053210;28;45298;-70
2021/06/30 07:49:56;;;;;;;;;12.00;11.00;;;;;18.78;63.73;101117.69;5052237;28;46685;-70
2021/06/30 07:52:21;;;;;;;;;11.00;9.75;;;;;18.81;63.68;101118.41;5052583;28;46042;-70
2021/06/30 07:54:47;;;;;;;;;10.50;10.50;;;;;18.89;63.55;101116.22;5052752;28;45292;-72
2021/06/30 07:57:12;;;;;;;;;11.00;11.00;;;;;19.01;63.36;101120.06;5052990;28;45518;-71
2021/06/30 07:59:37;;;;;;;;;11.25;9.25;;;;;19.15;62.43;101110.56;5052807;28;46176;-70
2021/06/30 08:02:03;;;;;;;;;10.25;8.25;;;;;19.34;62.48;101113.16;5052121;28;45284;-70
2021/06/30 08:04:28;;;;;;;;;12.00;11.50;;;;;19.54;61.22;101110.31;5052918;28;45411;-71
2021/06/30 08:06:54;;;;;;;;;13.00;11.00;;;;;19.76;61.61;101109.22;5052955;28;45300;-71
2021/06/30 08:09:19;;;;;;;;;12.50;9.75;;;;;19.97;60.79;101109.91;5052635;28;46940;-70
2021/06/30 08:11:45;;;;;;;;;10.00;9.00;;;;;20.11;60.87;101105.53;5052314;28;45505;-71
2021/06/30 08:14:11;;;;;;;;;9.00;7.00;;;;;20.23;59.90;101101.38;5050792;28;45518;-71
2021/06/30 08:16:37;;;;;;;;;9.00;6.50;;;;;20.26;58.75;101109.19;5053083;28;45286;-70
2021/06/30 08:19:02;;;;;;;;;9.25;7.75;;;;;20.22;59.13;101112.94;5052446;28;47561;-71
2021/06/30 08:21:28;;;;;;;;;11.75;9.25;;;;;20.28;58.82;101101.97;5052452;28;45337;-71
2021/06/30 08:23:53;;;;;;;;;13.50;12.00;;;;;20.41;57.85;101106.63;5052526;28;45278;-71
2021/06/30 08:26:19;;;;;;;;;10.00;9.25;;;;;20.44;57.98;101104.66;5052637;28;45508;-71
2021/06/30 08:28:46;;;;;;;;;6.50;6.50;;;;;20.55;57.57;101109.38;5052082;28;46115;-71
2021/06/30 08:31:11;;;;;;;;;7.50;7.00;;;;;20.57;56.69;101107.53;5052881;28;45579;-73
2021/06/30 08:33:36;;;;;;;;;14.50;11.00;;;;;20.60;57.25;101102.03;5051379;28;45258;-70
2021/06/30 08:36:04;;;;;;;;;12.25;7.00;;;;;20.65;57.08;101110.59;5052802;28;45268;-71
2021/06/30 08:38:29;;;;;;;;;7.00;6.75;;;;;20.59;56.09;101108.28;5051776;28;46303;-71
2021/06/30 08:40:59;;;;;;;;;8.75;7.75;;;;;20.56;55.99;101114.63;5052917;28;45344;-71
2021/06/30 08:43:25;;;;;;;;;10.00;8.25;;;;;20.51;55.52;101116.66;5052832;28;45409;-71
2021/06/30 08:45:51;;;;;;;;;7.25;7.25;;;;;20.41;55.73;101118.13;5053123;28;45489;-71
2021/06/30 08:48:17;;;;;;;;;8.25;6.50;;;;;20.38;56.45;101120.97;5052707;28;46106;-71
2021/06/30 08:50:43;;;;;;;;;13.50;10.50;;;;;20.47;56.65;101115.09;5052220;28;45669;-72
2021/06/30 08:53:13;;;;;;;;;16.00;10.75;;;;;20.58;56.29;101107.41;5052433;28;45366;-72
2021/06/30 08:55:45;;;;;;;;;7.50;7.00;;;;;20.77;56.63;101111.72;5052290;28;45247;-71
2021/06/30 08:58:12;;;;;;;;;15.75;12.50;;;;;20.92;56.61;101109.97;5036879;28;46295;-71
2021/06/30 09:00:40;;;;;;;;;9.25;9.25;;;;;21.09;55.33;101106.31;5052445;28;45224;-71
2021/06/30 09:03:08;;;;;;;;;9.25;9.25;;;;;21.14;54.92;101105.13;5051195;28;45496;-71
2021/06/30 09:07:59;;;;;;;;;13.00;11.25;;;;;21.00;55.59;101100.59;5051986;28;45483;-71
2021/06/30 09:10:32;;;;;;;;;11.00;10.00;;;;;20.94;55.47;101103.59;5052342;28;45468;-71
2021/06/30 09:12:58;;;;;;;;;10.25;9.00;;;;;20.93;55.64;101103.72;5052240;28;45628;-71
2021/06/30 09:15:31;;;;;;;;;11.50;9.25;;;;;20.81;56.08;101107.06;5052898;28;45533;-71
2021/06/30 09:18:18;;;;;;;;;12.75;11.50;;;;;20.75;56.26;101108.28;5051477;28;46389;-71
2021/06/30 09:20:46;;;;;;;;;9.00;9.00;;;;;20.73;56.14;101105.69;5051207;28;45395;-71
2021/06/30 09:23:12;;;;;;;;;10.75;9.00;;;;;20.77;55.95;101096.59;5051033;28;49753;-71
2021/06/30 09:25:41;;;;;;;;;8.75;8.75;;;;;20.89;55.95;101104.81;5051541;28;45553;-71
2021/06/30 09:28:21;;;;;;;;;11.25;10.75;;;;;21.10;55.66;101108.06;5036087;28;46677;-71
2021/06/30 09:31:03;;;;;;;;;15.50;10.25;;;;;21.31;55.80;101112.13;5049342;28;45395;-71
2021/06/30 09:33:52;;;;;;;;;10.00;7.00;;;;;21.54;54.55;101116.06;5052054;28;45350;-70
2021/06/30 09:36:19;;;;;;;;;13.00;8.25;;;;;21.61;54.40;101119.25;5049872;28;45512;-70
2021/06/30 09:38:44;;;;;;;;;12.00;12.00;;;;;21.72;54.00;101122.13;5051194;28;45541;-71
2021/06/30 09:41:30;;;;;;;;;7.00;7.00;;;;;21.72;52.90;101124.78;5050857;28;45652;-71
2021/06/30 09:44:08;;;;;;;;;16.25;12.00;;;;;21.61;53.66;101125.41;5049692;28;45268;-70
2021/06/30 09:46:35;;;;;;;;;12.25;11.50;;;;;21.62;53.92;101121.81;5054955;28;45414;-71
2021/06/30 09:49:03;;;;;;;;;10.75;10.50;;;;;21.60;53.57;101123.72;5055308;28;45480;-71
2021/06/30 09:51:29;;;;;;;;;9.75;9.75;;;;;21.52;52.96;101128.63;5054670;28;45308;-70
2021/06/30 09:54:12;;;;;;;;;12.00;9.00;;;;;21.35;52.89;101124.28;5054619;28;45249;-70
2021/06/30 09:56:39;;;;;;;;;10.75;9.50;;;;;21.18;53.38;101133.25;5054397;28;45468;-70
2021/06/30 09:59:10;;;;;;;;;11.00;9.75;;;;;21.05;53.65;101128.75;5053249;28;45365;-70
2021/06/30 10:01:36;;;;;;;;;11.00;11.00;;;;;20.97;53.90;101129.19;5054062;28;45532;-70
2021/06/30 10:04:02;;;;;;;;;10.25;9.25;;;;;20.92;54.23;101131.25;5054273;28;45751;-71
2021/06/30 10:06:36;;;;;;;;;11.50;9.25;;;;;20.88;53.93;101132.38;5054737;28;45423;-70
2021/06/30 10:09:06;;;;;;;;;13.50;10.25;;;;;20.81;54.44;101129.22;5054438;28;45546;-72
2021/06/30 10:11:35;;;;;;;;;11.00;9.00;;;;;20.84;54.80;101131.69;5053922;28;45538;-71
2021/06/30 10:14:02;;;;;;;;;15.50;12.25;;;;;20.86;54.59;101128.97;5053714;28;45479;-71
2021/06/30 10:16:28;;;;;;;;;9.50;9.50;;;;;20.88;54.53;101133.25;5053827;28;45503;-71
2021/06/30 10:18:59;;;;;;;;;10.75;10.75;;;;;20.99;53.25;101138.78;5053366;28;46350;-71
2021/06/30 10:21:27;;;;;;;;;14.25;14.00;;;;;20.91;53.85;101135.72;5053746;28;45454;-71
2021/06/30 10:23:53;;;;;;;;;10.25;8.25;;;;;20.86;53.84;101142.25;5052950;28;45624;-71
2021/06/30 10:26:20;;;;;;;;;7.75;7.75;;;;;20.74;53.70;101146.47;5053262;28;45620;-72
2021/06/30 10:28:48;;;;;;;;;12.50;11.75;;;;;20.58;54.14;101149.97;5053161;28;46001;-72
2021/06/30 10:31:14;;;;;;;;;15.00;10.75;;;;;20.51;54.35;101150.38;5053392;28;45498;-72
2021/06/30 10:33:41;;;;;;;;;10.75;9.50;;;;;20.62;54.55;101144.47;5054417;28;45492;-70
2021/06/30 10:36:10;;;;;;;;;6.25;6.00;;;;;20.85;55.03;101144.03;5054777;28;45546;-71
2021/06/30 10:38:55;;;;;;;;;11.25;9.25;;;;;21.08;54.78;101140.06;5054332;28;47311;-70
2021/06/30 10:41:39;;;;;;;;;8.75;8.75;;;;;21.27;54.23;101139.00;5054129;28;45317;-72
2021/06/30 10:44:11;;;;;;;;;12.00;10.75;;;;;21.29;53.67;101137.13;5052497;28;45581;-71
2021/06/30 10:46:36;;;;;;;;;12.25;11.25;;;;;21.24;53.83;101136.50;5054158;28;45497;-71
2021/06/30 10:49:16;;;;;;;;;12.25;12.25;;;;;21.20;52.73;101138.50;5053775;28;46978;-72
2021/06/30 10:51:52;;;;;;;;;10.00;9.25;;;;;21.26;52.61;101134.63;5050892;28;45365;-73
2021/06/30 10:54:32;;;;;;;;;12.25;9.50;;;;;21.47;52.35;101141.38;5054353;28;45438;-72
2021/06/30 10:57:24;;;;;;;;;15.00;13.25;;;;;21.86;52.27;101139.94;5051826;28;45224;-71
2021/06/30 11:00:00;;;;;;;;;13.25;13.00;;;;;22.17;51.83;101138.88;5052242;28;46406;-71
2021/06/30 11:02:31;;;;;;;;;15.25;13.75;;;;;22.33;51.20;101146.78;5051954;28;45419;-72
2021/06/30 11:04:57;;;;;;;;;15.50;12.75;;;;;22.50;51.20;101135.09;5053395;28;45532;-72
2021/06/30 11:07:32;;;;;;;;;13.00;11.25;;;;;22.90;50.66;101137.81;5053702;28;45624;-73
2021/06/30 11:10:21;;;;;;;;;14.50;14.25;;;;;23.44;49.53;101147.63;5053761;28;46267;-72
2021/06/30 11:12:57;;;;;;;;;8.25;8.25;;;;;23.90;46.59;101147.16;5053640;28;45373;-72
2021/06/30 11:15:35;;;;;;;;;12.00;9.50;;;;;24.22;45.40;101154.72;5052998;28;45366;-71
2021/06/30 11:18:01;;;;;;;;;11.50;9.00;;;;;24.33;45.67;101155.66;5053412;28;45324;-70